Time;durP1;ratioP1;P1;durP2;ratioP2;P2;SDS_P1;SDS_P2;PMS_P1;PMS_P2;Temp;Humidity;BMP_temperature;BMP_pressure;BME280_temperature;BME280_humidity;BME280_pressure;Samples;Min_cycle;Max_cycle;Signal;HPM_P1;HPM_P2
2022/09/09 00:00:16;;;;;;;3.13;2.20;;;;;;;17.55;76.93;100719.53;5022011;28;20602;-78
2022/09/09 00:02:54;;;;;;;4.68;2.10;;;;;;;17.56;77.00;100726.53;5038673;28;20028;-78
2022/09/09 00:05:28;;;;;;;4.82;2.40;;;;;;;17.54;77.10;100716.03;5056471;28;20029;-78
2022/09/09 00:07:58;;;;;;;2.90;2.25;;;;;;;17.53;77.00;100716.16;5038265;28;20059;-78
2022/09/09 00:10:31;;;;;;;2.28;2.08;;;;;;;17.54;76.88;100723.16;5056869;28;20021;-78
2022/09/09 00:13:35;;;;;;;2.65;2.22;;;;;;;17.51;77.05;100710.13;5038431;28;20024;-78
2022/09/09 00:16:22;;;;;;;3.45;2.65;;;;;;;17.51;76.97;100712.75;5056000;28;20043;-78
2022/09/09 00:19:13;;;;;;;3.53;2.75;;;;;;;17.49;77.25;100704.09;5038281;28;20064;-79
2022/09/09 00:21:48;;;;;;;4.72;2.55;;;;;;;17.48;77.38;100702.38;5038387;28;20033;-79
2022/09/09 00:24:27;;;;;;;5.65;2.45;;;;;;;17.46;77.27;100706.00;5038489;28;20221;-79
2022/09/09 00:27:01;;;;;;;3.55;2.88;;;;;;;17.45;77.25;100706.13;5038116;28;20047;-78
2022/09/09 00:29:35;;;;;;;3.53;2.65;;;;;;;17.43;77.07;100700.91;5056163;28;20023;-78
2022/09/09 00:32:12;;;;;;;3.30;2.72;;;;;;;17.42;77.46;100696.56;5055945;28;20033;-78
2022/09/09 00:34:44;;;;;;;2.90;2.70;;;;;;;17.41;77.45;100700.19;5032867;28;20179;-78
2022/09/09 00:37:09;;;;;;;4.47;3.03;;;;;;;17.41;77.58;100699.34;5052477;28;20024;-78
2022/09/09 00:39:41;;;;;;;5.28;3.13;;;;;;;17.38;77.58;100692.47;5037734;28;20044;-78
2022/09/09 00:42:23;;;;;;;4.57;3.10;;;;;;;17.37;77.62;100690.78;5039757;28;20035;-78
2022/09/09 00:44:55;;;;;;;5.18;3.17;;;;;;;17.36;77.59;100686.44;5036889;28;20055;-79
2022/09/09 00:47:36;;;;;;;4.05;3.45;;;;;;;17.35;77.69;100686.53;5049808;28;20390;-78
2022/09/09 00:50:11;;;;;;;4.03;3.50;;;;;;;17.34;77.70;100691.00;5032454;28;20029;-78
2022/09/09 00:52:50;;;;;;;3.70;3.40;;;;;;;17.32;77.74;100690.25;5041549;28;20130;-78
2022/09/09 00:55:44;;;;;;;4.28;3.22;;;;;;;17.31;77.73;100685.06;5060276;28;20111;-79
2022/09/09 00:58:09;;;;;;;3.78;3.38;;;;;;;17.30;77.81;100688.66;5059868;28;20258;-78
2022/09/09 01:00:50;;;;;;;5.07;3.25;;;;;;;17.29;77.75;100687.00;5041847;28;20209;-79
2022/09/09 01:03:45;;;;;;;4.35;3.00;;;;;;;17.27;77.80;100685.28;5042052;28;20068;-78
2022/09/09 01:06:46;;;;;;;3.13;2.90;;;;;;;17.25;77.86;100681.06;5033837;28;20045;-79
2022/09/09 01:09:38;;;;;;;5.00;3.08;;;;;;;17.23;77.82;100675.88;4999927;28;20393;-78
2022/09/09 01:12:14;;;;;;;3.22;2.70;;;;;;;17.24;77.84;100674.06;5059789;28;20021;-78
2022/09/09 01:14:47;;;;;;;3.28;2.88;;;;;;;17.21;77.83;100669.03;5041894;28;20367;-78
2022/09/09 01:17:19;;;;;;;2.75;2.28;;;;;;;17.21;77.95;100674.31;5041679;28;20029;-78
2022/09/09 01:19:44;;;;;;;2.95;2.40;;;;;;;17.19;77.88;100674.41;5041585;28;20064;-79
2022/09/09 01:22:29;;;;;;;2.50;2.30;;;;;;;17.19;77.83;100668.25;5041498;28;20025;-78
2022/09/09 01:25:26;;;;;;;2.33;2.10;;;;;;;17.18;77.99;100661.28;5041366;28;20028;-78
2022/09/09 01:27:55;;;;;;;4.03;2.60;;;;;;;17.17;78.23;100663.09;5041633;28;20021;-78
2022/09/09 01:30:22;;;;;;;4.03;2.97;;;;;;;17.16;78.27;100664.03;5059626;28;20024;-79
2022/09/09 01:32:55;;;;;;;3.17;2.67;;;;;;;17.16;78.31;100665.84;5024816;28;20287;-79
2022/09/09 01:35:46;;;;;;;3.35;2.67;;;;;;;17.15;78.10;100658.84;5059427;28;20032;-78
2022/09/09 01:38:12;;;;;;;3.22;2.50;;;;;;;17.14;78.55;100660.66;5041680;28;20104;-78
2022/09/09 01:40:38;;;;;;;8.40;2.53;;;;;;;17.13;78.19;100655.47;5059155;28;20028;-78
2022/09/09 01:43:04;;;;;;;2.38;2.10;;;;;;;17.12;78.33;100657.28;5024767;28;20078;-78
2022/09/09 01:45:30;;;;;;;2.85;2.13;;;;;;;17.11;78.35;100646.81;5041484;28;20281;-78
2022/09/09 01:47:56;;;;;;;2.70;1.90;;;;;;;17.10;78.34;100648.59;5041210;28;20259;-78
2022/09/09 01:50:22;;;;;;;1.98;1.80;;;;;;;17.10;78.28;100642.44;5008072;28;20040;-79
2022/09/09 01:52:52;;;;;;;3.17;1.80;;;;;;;17.07;78.37;100647.00;5040488;28;20017;-79
2022/09/09 01:55:23;;;;;;;3.95;1.60;;;;;;;17.08;78.16;100648.72;5036190;28;20029;-78
2022/09/09 01:58:06;;;;;;;2.58;1.63;;;;;;;17.06;78.37;100647.13;5032624;28;20021;-78
2022/09/09 02:00:33;;;;;;;2.88;1.33;;;;;;;17.06;78.50;100649.75;5024882;28;20096;-78
2022/09/09 02:03:11;;;;;;;4.82;1.60;;;;;;;17.04;78.47;100643.72;5000116;28;20065;-78
2022/09/09 02:05:41;;;;;;;2.33;1.70;;;;;;;17.04;78.21;100649.03;5037071;28;20080;-79
2022/09/09 02:08:37;;;;;;;2.15;1.58;;;;;;;17.02;78.49;100638.53;5040761;28;20631;-78
2022/09/09 02:11:13;;;;;;;2.47;1.65;;;;;;;17.01;78.19;100634.22;5040469;28;20036;-78
2022/09/09 02:13:39;;;;;;;2.35;1.70;;;;;;;17.01;78.42;100642.16;5040796;28;20029;-78
2022/09/09 02:16:09;;;;;;;2.70;1.40;;;;;;;16.99;78.31;100637.91;5040333;28;20378;-78
2022/09/09 02:18:41;;;;;;;4.80;1.40;;;;;;;16.99;78.18;100638.78;5058240;28;20025;-78
2022/09/09 02:21:07;;;;;;;4.10;1.50;;;;;;;16.98;78.57;100630.97;5040544;28;20256;-79
2022/09/09 02:23:34;;;;;;;3.53;1.20;;;;;;;16.97;78.33;100638.06;5038289;28;20104;-78
2022/09/09 02:26:03;;;;;;;2.28;1.48;;;;;;;16.96;78.46;100625.78;5038107;28;20045;-78
2022/09/09 02:28:32;;;;;;;1.95;1.30;;;;;;;16.95;78.52;100618.78;5020619;28;20026;-78
2022/09/09 02:30:58;;;;;;;2.25;1.30;;;;;;;16.95;78.34;100617.94;5020102;28;20025;-78
2022/09/09 02:33:34;;;;;;;1.80;1.33;;;;;;;16.94;78.21;100611.81;5037505;28;20062;-77
2022/09/09 02:36:03;;;;;;;1.75;1.10;;;;;;;16.93;78.25;100604.81;5037317;28;20206;-78
2022/09/09 02:38:32;;;;;;;2.15;1.20;;;;;;;16.92;78.30;100605.78;5037445;28;20358;-78
2022/09/09 02:40:58;;;;;;;;;;;;;;;16.91;78.28;100604.09;5037649;28;20344;-78
2022/09/09 02:43:24;;;;;;;1.88;1.25;;;;;;;16.92;78.33;100604.91;5037343;28;20148;-78
2022/09/09 02:46:03;;;;;;;4.45;1.25;;;;;;;16.90;78.25;100602.41;5004733;28;20033;-79
2022/09/09 02:48:31;;;;;;;2.15;1.40;;;;;;;16.89;78.50;100606.00;5037815;28;20060;-78
2022/09/09 02:51:02;;;;;;;3.70;1.70;;;;;;;16.88;78.47;100602.50;5038238;28;20085;-78
2022/09/09 02:53:38;;;;;;;4.03;1.55;;;;;;;16.86;78.33;100604.44;5020335;28;20105;-79
2022/09/09 02:56:16;;;;;;;1.70;1.35;;;;;;;16.86;78.35;100601.78;5020149;28;20064;-78
2022/09/09 02:58:42;;;;;;;2.33;1.52;;;;;;;16.85;78.33;100612.47;5020032;28;20017;-79
2022/09/09 03:01:08;;;;;;;1.92;1.38;;;;;;;16.84;78.29;100603.66;5020355;28;20092;-79
2022/09/09 03:03:34;;;;;;;2.63;1.30;;;;;;;16.84;78.13;100610.75;5003789;28;20048;-78
2022/09/09 03:05:59;;;;;;;2.75;1.25;;;;;;;16.83;78.32;100604.63;4990167;28;20093;-80
2022/09/09 03:08:25;;;;;;;2.47;1.08;;;;;;;16.82;78.34;100592.31;5015570;28;20081;-78
2022/09/09 03:10:50;;;;;;;3.58;1.20;;;;;;;16.80;78.28;100596.03;5020569;28;20034;-79
2022/09/09 03:13:15;;;;;;;2.47;1.40;;;;;;;16.81;78.11;100592.44;5000273;28;20029;-79
2022/09/09 03:15:41;;;;;;;1.63;1.17;;;;;;;16.79;78.23;100589.91;5003695;28;20096;-79
2022/09/09 03:18:07;;;;;;;2.15;0.98;;;;;;;16.79;78.10;100581.97;4994960;28;20037;-78
2022/09/09 03:20:32;;;;;;;1.38;1.00;;;;;;;16.80;78.35;100582.81;5032327;28;20072;-78
2022/09/09 03:23:00;;;;;;;1.73;1.15;;;;;;;16.79;78.07;100584.63;5039324;28;20031;-78
2022/09/09 03:25:26;;;;;;;1.42;1.10;;;;;;;16.79;78.07;100589.91;5023172;28;20029;-78
2022/09/09 03:27:54;;;;;;;3.17;1.30;;;;;;;16.79;78.19;100581.97;5039497;28;20060;-79
2022/09/09 03:30:20;;;;;;;1.73;0.95;;;;;;;16.79;77.84;100579.34;5039294;28;20040;-78
2022/09/09 03:32:46;;;;;;;2.78;1.10;;;;;;;16.79;78.04;100581.97;5023099;28;20033;-78
2022/09/09 03:35:11;;;;;;;1.50;1.20;;;;;;;16.78;78.12;100582.91;5006641;28;20227;-78
2022/09/09 03:37:38;;;;;;;2.05;1.10;;;;;;;16.78;78.04;100580.28;5022955;28;20025;-78
2022/09/09 03:40:04;;;;;;;1.50;0.98;;;;;;;16.77;78.14;100578.59;5039349;28;20374;-78
2022/09/09 03:42:30;;;;;;;2.35;1.20;;;;;;;16.77;78.02;100583.03;5039395;28;20025;-78
2022/09/09 03:44:57;;;;;;;2.67;0.93;;;;;;;16.75;77.95;100583.13;5039036;28;20040;-78
2022/09/09 03:47:23;;;;;;;2.00;1.10;;;;;;;16.75;77.58;100580.47;5022653;28;20042;-79
2022/09/09 03:49:48;;;;;;;2.22;1.35;;;;;;;16.75;77.76;100580.47;5056585;28;20033;-78
2022/09/09 03:52:15;;;;;;;4.18;0.95;;;;;;;16.75;77.73;100583.13;5056770;28;20056;-78
2022/09/09 03:54:42;;;;;;;4.07;1.27;;;;;;;16.73;77.78;100582.41;5022698;28;20029;-78
2022/09/09 03:57:08;;;;;;;2.03;1.00;;;;;;;16.75;77.86;100582.28;5022246;28;20033;-78
2022/09/09 03:59:34;;;;;;;1.52;0.98;;;;;;;16.74;77.70;100584.09;5023015;28;20025;-78
2022/09/09 04:02:00;;;;;;;5.18;1.38;;;;;;;16.73;77.54;100573.63;5022414;28;20546;-78
2022/09/09 04:04:26;;;;;;;2.28;0.88;;;;;;;16.72;77.69;100569.28;5056406;28;20028;-78
2022/09/09 04:06:52;;;;;;;3.63;1.30;;;;;;;16.72;77.72;100571.91;5038320;28;20324;-79
2022/09/09 04:09:17;;;;;;;1.60;0.90;;;;;;;16.69;77.83;100568.53;5038884;28;20040;-78
2022/09/09 04:11:43;;;;;;;1.25;0.77;;;;;;;16.71;77.76;100573.72;5022319;28;20036;-79
2022/09/09 04:14:08;;;;;;;2.10;1.08;;;;;;;16.69;77.67;100563.25;5022192;28;20032;-78
2022/09/09 04:16:36;;;;;;;1.40;0.98;;;;;;;16.68;77.80;100561.59;5038138;28;20061;-79
2022/09/09 04:19:04;;;;;;;2.43;1.10;;;;;;;16.69;77.86;100568.53;5055902;28;20104;-78
2022/09/09 04:21:29;;;;;;;1.88;1.00;;;;;;;16.68;77.72;100558.06;5038092;28;20307;-79
2022/09/09 04:23:55;;;;;;;1.38;0.90;;;;;;;16.67;77.59;100551.94;5001690;28;20043;-79
2022/09/09 04:26:20;;;;;;;2.17;0.93;;;;;;;16.68;77.60;100550.13;5022893;28;20021;-78
2022/09/09 04:28:46;;;;;;;2.33;0.80;;;;;;;16.67;77.54;100551.94;5030605;28;20063;-78
2022/09/09 04:31:19;;;;;;;2.53;1.10;;;;;;;16.66;77.61;100552.06;5056666;28;20036;-78
2022/09/09 04:33:46;;;;;;;0.88;0.88;;;;;;;16.66;77.70;100550.28;5038086;28;20052;-78
2022/09/09 04:36:12;;;;;;;2.67;0.82;;;;;;;16.65;77.90;100548.56;5038674;28;20044;-79
2022/09/09 04:38:37;;;;;;;1.00;0.73;;;;;;;16.65;77.75;100553.84;5038199;28;20048;-78
2022/09/09 04:41:03;;;;;;;2.17;0.82;;;;;;;16.64;77.57;100541.59;5021817;28;20338;-79
2022/09/09 04:43:30;;;;;;;2.35;1.02;;;;;;;16.64;77.77;100532.81;5038006;28;20132;-78
2022/09/09 04:45:56;;;;;;;1.88;0.90;;;;;;;16.64;77.81;100540.75;5022085;28;20211;-78
2022/09/09 04:48:22;;;;;;;2.08;0.90;;;;;;;16.63;77.68;100545.19;5021609;28;20194;-78
2022/09/09 04:51:09;;;;;;;2.35;1.10;;;;;;;16.61;77.93;100547.09;5035955;28;20033;-79
2022/09/09 04:53:35;;;;;;;2.20;1.00;;;;;;;16.61;77.81;100538.34;5017215;28;20123;-78
2022/09/09 04:56:06;;;;;;;2.42;1.05;;;;;;;16.59;78.17;100538.44;4983579;28;20021;-79
2022/09/09 04:58:32;;;;;;;2.88;1.20;;;;;;;16.59;77.97;100538.44;5014826;28;20031;-78
2022/09/09 05:01:06;;;;;;;3.67;1.30;;;;;;;16.58;78.08;100534.09;5014744;28;20314;-78
2022/09/09 05:03:31;;;;;;;4.50;1.40;;;;;;;16.57;78.08;100537.72;4981474;28;20061;-78
2022/09/09 05:06:23;;;;;;;2.75;1.13;;;;;;;16.58;78.06;100541.19;4980881;28;20396;-80
2022/09/09 05:08:49;;;;;;;2.78;1.30;;;;;;;16.57;78.08;100542.13;5012492;28;20038;-79
2022/09/09 05:11:28;;;;;;;1.33;1.20;;;;;;;16.55;78.19;100539.59;5001842;28;20091;-78
2022/09/09 05:13:53;;;;;;;;;;;;;;;16.54;78.41;100537.91;5025940;28;20036;-79
2022/09/09 05:16:20;;;;;;;1.10;1.00;;;;;;;16.52;78.18;100539.81;5025104;28;19920;-78
2022/09/09 05:18:46;;;;;;;3.80;1.50;;;;;;;16.51;78.25;100538.13;5033457;28;20320;-78
2022/09/09 05:21:13;;;;;;;3.58;1.33;;;;;;;16.50;78.19;100528.53;5014610;28;20055;-78
2022/09/09 05:23:38;;;;;;;2.88;1.17;;;;;;;16.49;78.13;100530.28;5018684;28;20044;-78
2022/09/09 05:26:05;;;;;;;3.03;1.00;;;;;;;16.49;78.03;100524.19;5015400;28;20056;-78
2022/09/09 05:28:31;;;;;;;2.35;1.20;;;;;;;16.49;78.05;100521.53;5020284;28;20041;-79
2022/09/09 05:31:03;;;;;;;1.27;1.17;;;;;;;16.49;77.77;100527.66;5005366;28;20025;-78
2022/09/09 05:33:29;;;;;;;4.47;1.30;;;;;;;16.49;77.80;100522.38;5037220;28;20048;-80
2022/09/09 05:36:01;;;;;;;3.90;1.40;;;;;;;16.48;77.93;100528.63;5041344;28;20025;-78
2022/09/09 05:38:27;;;;;;;2.65;1.23;;;;;;;16.49;78.11;100530.28;5037564;28;20053;-78
2022/09/09 05:40:53;;;;;;;2.22;1.35;;;;;;;16.49;78.17;100532.94;5030752;28;20320;-79
2022/09/09 05:43:22;;;;;;;1.92;1.27;;;;;;;16.50;77.77;100539.09;5020732;28;20209;-78
2022/09/09 05:45:48;;;;;;;1.40;1.08;;;;;;;16.50;77.94;100539.09;5036631;28;20177;-78
2022/09/09 05:48:16;;;;;;;2.72;1.10;;;;;;;16.50;77.88;100544.38;5025227;28;20045;-79
2022/09/09 05:50:42;;;;;;;2.95;0.98;;;;;;;16.50;77.79;100539.09;5018880;28;20043;-78
2022/09/09 05:53:10;;;;;;;4.72;1.38;;;;;;;16.49;77.91;100543.50;5018328;28;20561;-79
2022/09/09 05:55:35;;;;;;;2.90;1.15;;;;;;;16.51;77.99;100540.75;5018477;28;20032;-79
2022/09/09 05:58:01;;;;;;;1.95;0.88;;;;;;;16.51;78.12;100543.41;5041585;28;20036;-78
2022/09/09 06:00:26;;;;;;;2.83;1.42;;;;;;;16.50;77.89;100547.88;5025420;28;20057;-78
2022/09/09 06:02:53;;;;;;;1.40;1.10;;;;;;;16.50;78.01;100547.88;5019857;28;20059;-78
2022/09/09 06:05:19;;;;;;;4.15;1.33;;;;;;;16.50;77.91;100545.22;5004243;28;20109;-78
2022/09/09 06:07:45;;;;;;;1.48;1.05;;;;;;;16.50;78.06;100547.03;5037745;28;20060;-78
2022/09/09 06:10:14;;;;;;;1.20;1.00;;;;;;;16.50;78.28;100553.16;5017824;28;20439;-78
2022/09/09 06:12:39;;;;;;;2.08;1.00;;;;;;;16.51;78.19;100551.34;5034471;28;20272;-78
2022/09/09 06:15:05;;;;;;;4.18;1.45;;;;;;;16.52;78.05;100550.41;5018006;28;20240;-78
2022/09/09 06:17:31;;;;;;;1.80;1.17;;;;;;;16.52;77.91;100550.41;5005787;28;20033;-78
2022/09/09 06:19:56;;;;;;;2.63;1.42;;;;;;;16.51;78.35;100549.53;5000950;28;20057;-78
2022/09/09 06:22:22;;;;;;;1.98;1.00;;;;;;;16.53;78.07;100546.78;5035366;28;20025;-79
2022/09/09 06:24:47;;;;;;;1.73;1.02;;;;;;;16.54;78.13;100551.13;5011400;28;20320;-78
2022/09/09 06:27:13;;;;;;;3.03;1.05;;;;;;;16.55;78.43;100554.63;5041552;28;20103;-78
2022/09/09 06:29:41;;;;;;;3.55;1.13;;;;;;;16.56;78.29;100551.88;4985227;28;20218;-78
2022/09/09 06:32:08;;;;;;;2.10;1.10;;;;;;;16.55;77.93;100550.16;4996295;28;20064;-78
2022/09/09 06:34:35;;;;;;;3.40;1.10;;;;;;;16.56;78.01;100559.81;5030064;28;20052;-78
2022/09/09 06:37:00;;;;;;;2.30;1.48;;;;;;;16.56;77.91;100557.16;5019055;28;20035;-78
2022/09/09 06:39:26;;;;;;;2.13;1.05;;;;;;;16.54;77.94;100545.00;5000975;28;20283;-78
2022/09/09 06:41:52;;;;;;;4.75;1.25;;;;;;;16.53;78.73;100562.66;5017024;28;20033;-79
2022/09/09 06:44:18;;;;;;;3.70;1.00;;;;;;;16.54;78.79;100553.78;4997339;28;20029;-78
2022/09/09 06:46:47;;;;;;;2.80;1.17;;;;;;;16.54;78.57;100545.84;5018980;28;20413;-79
2022/09/09 06:49:13;;;;;;;;;;;;;;;16.53;78.66;100546.78;4991145;28;20021;-78
2022/09/09 06:51:46;;;;;;;3.13;1.30;;;;;;;16.54;78.82;100553.78;5017825;28;19917;-77
2022/09/09 06:54:12;;;;;;;2.10;1.15;;;;;;;16.55;79.05;100551.97;5019311;28;20029;-77
2022/09/09 06:56:42;;;;;;;3.53;1.52;;;;;;;16.54;79.00;100552.94;5036009;28;20040;-78
2022/09/09 06:59:09;;;;;;;3.05;1.52;;;;;;;16.54;78.81;100545.84;5032460;28;20047;-78
2022/09/09 07:01:46;;;;;;;3.53;0.93;;;;;;;16.55;78.86;100552.81;5038410;28;20028;-77
2022/09/09 07:04:13;;;;;;;3.50;1.20;;;;;;;16.57;78.74;100550.06;5014117;28;20025;-78
2022/09/09 07:06:42;;;;;;;3.25;1.30;;;;;;;16.59;78.74;100554.31;5011743;28;20385;-78
2022/09/09 07:09:10;;;;;;;2.47;1.02;;;;;;;16.59;78.49;100548.16;5036910;28;20030;-77
2022/09/09 07:11:44;;;;;;;2.08;1.27;;;;;;;16.59;78.81;100548.16;5021263;28;20043;-78
2022/09/09 07:14:13;;;;;;;1.55;1.25;;;;;;;16.60;78.96;100550.69;5016175;28;20332;-78
2022/09/09 07:16:42;;;;;;;1.75;1.10;;;;;;;16.60;78.88;100548.03;5016402;28;20037;-78
2022/09/09 07:19:07;;;;;;;1.58;1.30;;;;;;;16.60;78.55;100545.41;5029551;28;20048;-77
2022/09/09 07:21:33;;;;;;;1.73;1.10;;;;;;;16.62;79.00;100547.94;5003636;28;20037;-78
2022/09/09 07:23:59;;;;;;;4.47;1.30;;;;;;;16.62;78.91;100540.00;5014140;28;20025;-78
2022/09/09 07:26:30;;;;;;;6.47;1.90;;;;;;;16.62;78.79;100550.59;5006249;28;20287;-78
2022/09/09 07:28:56;;;;;;;3.13;1.83;;;;;;;16.64;79.05;100548.69;5016302;28;20083;-78
2022/09/09 07:31:31;;;;;;;2.85;1.73;;;;;;;16.63;78.71;100544.34;5034184;28;20032;-78
2022/09/09 07:33:56;;;;;;;5.18;1.55;;;;;;;16.63;78.61;100539.91;5015442;28;20049;-77
2022/09/09 07:36:25;;;;;;;2.55;1.50;;;;;;;16.64;78.64;100543.38;5031481;28;20084;-78
2022/09/09 07:38:56;;;;;;;1.77;1.33;;;;;;;16.64;78.64;100546.03;5027397;28;20192;-78
2022/09/09 07:41:28;;;;;;;2.75;1.73;;;;;;;16.64;78.99;100554.81;5018232;28;20077;-78
2022/09/09 07:43:53;;;;;;;3.10;1.58;;;;;;;16.63;79.16;100557.56;5032653;28;20025;-78
2022/09/09 07:46:20;;;;;;;3.00;1.83;;;;;;;16.62;78.89;100546.13;5008415;28;20033;-78
2022/09/09 07:48:51;;;;;;;1.70;1.30;;;;;;;16.63;78.95;100550.47;5038451;28;20358;-78
2022/09/09 07:51:21;;;;;;;3.22;1.50;;;;;;;16.64;78.96;100549.50;5030770;28;20104;-78
2022/09/09 07:53:47;;;;;;;2.05;1.50;;;;;;;16.64;78.63;100544.22;5014393;28;20100;-79
2022/09/09 07:56:16;;;;;;;3.55;1.60;;;;;;;16.65;78.63;100548.56;5018822;28;20043;-78
2022/09/09 07:58:44;;;;;;;2.22;1.60;;;;;;;16.67;78.50;100549.31;5018937;28;20021;-78
2022/09/09 08:01:13;;;;;;;3.22;1.60;;;;;;;16.67;79.01;100544.00;5019838;28;20065;-78
2022/09/09 08:03:38;;;;;;;1.83;1.23;;;;;;;16.67;78.96;100549.31;5029616;28;20061;-78
2022/09/09 08:06:06;;;;;;;2.58;1.60;;;;;;;16.67;78.80;100551.13;4999537;28;20041;-78
2022/09/09 08:08:32;;;;;;;5.25;1.38;;;;;;;16.67;78.47;100546.66;5014390;28;20380;-78
2022/09/09 08:11:12;;;;;;;3.97;1.42;;;;;;;16.68;78.91;100545.72;5004929;28;20141;-78
2022/09/09 08:13:38;;;;;;;4.55;1.30;;;;;;;16.70;78.97;100549.09;5019208;28;20041;-77
2022/09/09 08:16:14;;;;;;;2.05;1.15;;;;;;;16.70;79.04;100553.56;5020874;28;20334;-78
2022/09/09 08:18:44;;;;;;;2.90;1.60;;;;;;;16.70;79.12;100542.97;5018275;28;20041;-78
2022/09/09 08:21:13;;;;;;;1.52;1.10;;;;;;;16.72;78.95;100556.94;5012184;28;20241;-77
2022/09/09 08:23:41;;;;;;;2.70;1.30;;;;;;;16.73;78.83;100555.13;5014733;28;20037;-78
2022/09/09 08:26:21;;;;;;;1.73;1.13;;;;;;;16.73;78.89;100552.47;5002395;28;20144;-78
2022/09/09 08:28:46;;;;;;;2.55;1.48;;;;;;;16.73;78.71;100552.47;5017761;28;20022;-78
2022/09/09 08:31:39;;;;;;;1.58;1.23;;;;;;;16.75;78.59;100555.84;5016181;28;20103;-77
2022/09/09 08:34:07;;;;;;;2.63;1.42;;;;;;;16.72;78.86;100562.22;5019723;28;20042;-78
2022/09/09 08:36:42;;;;;;;4.22;1.40;;;;;;;16.72;79.01;100556.94;5020358;28;20064;-78
2022/09/09 08:39:09;;;;;;;4.13;1.65;;;;;;;16.74;78.99;100560.31;5017130;28;20029;-78
2022/09/09 08:42:02;;;;;;;2.33;1.50;;;;;;;16.74;78.77;100557.66;5017521;28;20095;-78
2022/09/09 08:44:49;;;;;;;4.20;1.42;;;;;;;16.75;78.83;100561.13;5028088;28;20081;-78
2022/09/09 08:47:26;;;;;;;4.28;1.60;;;;;;;16.76;78.63;100570.78;5027109;28;20029;-78
2022/09/09 08:50:04;;;;;;;4.80;1.80;;;;;;;16.77;78.93;100561.88;5028230;28;20264;-77
2022/09/09 08:53:02;;;;;;;1.90;1.40;;;;;;;16.76;78.83;100568.13;5033652;28;20021;-79
2022/09/09 08:56:03;;;;;;;3.37;1.73;;;;;;;16.76;78.81;100562.84;5037642;28;20025;-78
2022/09/09 08:58:33;;;;;;;3.17;1.40;;;;;;;16.76;79.07;100565.50;4995588;28;20168;-80
2022/09/09 09:01:08;;;;;;;4.43;1.58;;;;;;;16.77;78.89;100572.44;5019064;28;20067;-79
2022/09/09 09:03:50;;;;;;;2.42;1.67;;;;;;;16.77;78.83;100569.81;5013063;28;20029;-79
2022/09/09 09:06:22;;;;;;;2.33;1.50;;;;;;;16.77;79.01;100573.31;5032656;28;20352;-79
2022/09/09 09:09:31;;;;;;;5.68;1.67;;;;;;;16.77;78.91;100575.09;5032749;28;20040;-80
2022/09/09 09:12:00;;;;;;;6.63;1.58;;;;;;;16.77;78.84;100581.25;5011247;28;20037;-77
2022/09/09 09:14:30;;;;;;;7.20;1.73;;;;;;;16.78;78.90;100574.16;5018100;28;20029;-78
2022/09/09 09:17:46;;;;;;;3.78;1.52;;;;;;;16.79;79.19;100573.19;5040772;28;20439;-79
2022/09/09 09:20:14;;;;;;;2.22;1.70;;;;;;;16.78;79.12;100572.34;5024674;28;20365;-78
2022/09/09 09:22:48;;;;;;;2.92;1.10;;;;;;;16.78;79.12;100575.00;5015983;28;20057;-79
2022/09/09 09:25:26;;;;;;;2.38;1.20;;;;;;;16.79;78.98;100574.03;4992507;28;20130;-78
2022/09/09 09:28:44;;;;;;;4.20;1.43;;;;;;;16.80;79.37;100583.66;4998086;28;20037;-79
2022/09/09 09:31:11;;;;;;;4.40;1.50;;;;;;;16.80;79.14;100572.25;5013235;28;20337;-78
2022/09/09 09:34:21;;;;;;;;;;;;;;;;;;;;;
2022/09/09 09:36:57;;;;;;;5.18;1.40;;;;;;;16.84;79.11;100566.63;4985992;28;20225;-78
2022/09/09 09:39:36;;;;;;;2.20;1.40;;;;;;;16.83;79.45;100561.47;5014967;28;20045;-80
2022/09/09 09:42:22;;;;;;;1.83;1.17;;;;;;;16.85;79.58;100560.41;4999813;28;20045;-80
2022/09/09 09:44:48;;;;;;;2.80;1.40;;;;;;;16.84;79.43;100558.69;4995105;28;20030;-79
2022/09/09 09:47:29;;;;;;;2.65;1.40;;;;;;;16.85;79.81;100556.94;4981770;28;20040;-80
2022/09/09 09:50:02;;;;;;;4.93;1.85;;;;;;;16.86;79.79;100556.81;4982675;28;20029;-79
2022/09/09 09:52:35;;;;;;;3.40;1.92;;;;;;;16.88;80.23;100557.56;5012896;28;20061;-79
2022/09/09 09:55:06;;;;;;;4.25;1.80;;;;;;;16.89;80.42;100564.50;4980622;28;20238;-78
2022/09/09 09:57:36;;;;;;;1.98;1.20;;;;;;;16.91;81.03;100555.63;4997465;28;20376;-80
2022/09/09 10:00:14;;;;;;;5.22;1.60;;;;;;;16.91;80.69;100559.13;4997125;28;20033;-79
2022/09/09 10:02:43;;;;;;;4.38;1.75;;;;;;;16.93;80.66;100557.22;4996797;28;20041;-78
2022/09/09 10:05:18;;;;;;;2.25;1.33;;;;;;;16.95;80.83;100560.59;4996944;28;20044;-80
2022/09/09 10:07:46;;;;;;;2.30;1.40;;;;;;;16.95;80.70;100555.28;5016596;28;20316;-80
2022/09/09 10:10:23;;;;;;;3.72;1.42;;;;;;;16.97;80.49;100557.84;5000278;28;20341;-80
2022/09/09 10:13:02;;;;;;;6.35;1.27;;;;;;;16.97;80.42;100558.69;5016851;28;20313;-80
2022/09/09 10:16:10;;;;;;;3.00;1.23;;;;;;;16.96;80.63;100562.28;5012323;28;20029;-77
2022/09/09 10:18:59;;;;;;;6.57;1.90;;;;;;;16.97;80.67;100571.94;4970025;28;20254;-77
2022/09/09 10:21:52;;;;;;;3.92;1.92;;;;;;;16.96;81.36;100567.56;5014550;28;20046;-77
2022/09/09 10:24:29;;;;;;;5.97;2.03;;;;;;;16.96;81.58;100562.28;5020303;28;20104;-77
2022/09/09 10:27:11;;;;;;;3.75;1.73;;;;;;;16.97;81.92;100568.41;5038745;28;20040;-77
2022/09/09 10:30:08;;;;;;;4.95;1.80;;;;;;;16.97;81.84;100561.34;5014378;28;20029;-77
2022/09/09 10:32:33;;;;;;;6.05;1.92;;;;;;;16.99;81.97;100567.38;5019977;28;20045;-77
2022/09/09 10:35:22;;;;;;;4.20;1.67;;;;;;;17.00;82.24;100566.38;5019866;28;20025;-77
2022/09/09 10:38:21;;;;;;;2.83;1.30;;;;;;;17.02;81.89;100563.63;5016862;28;20787;-76
2022/09/09 10:41:08;;;;;;;4.03;1.85;;;;;;;17.03;82.14;100560.88;5029261;28;20061;-78
2022/09/09 10:43:48;;;;;;;3.47;1.80;;;;;;;17.04;82.50;100562.56;5037116;28;20075;-77
2022/09/09 10:46:52;;;;;;;3.38;1.35;;;;;;;17.05;82.49;100558.97;5008624;28;20324;-77
2022/09/09 10:49:49;;;;;;;3.00;1.40;;;;;;;17.05;82.34;100560.78;4994732;28;20076;-77
2022/09/09 10:52:42;;;;;;;1.95;1.00;;;;;;;17.05;82.47;100561.63;5013544;28;20076;-77
2022/09/09 10:55:16;;;;;;;4.90;1.58;;;;;;;17.08;82.35;100569.34;5009204;28;20034;-77
2022/09/09 10:57:51;;;;;;;6.25;1.70;;;;;;;17.09;82.34;100559.59;5031114;28;20025;-77
2022/09/09 11:00:24;;;;;;;3.47;1.33;;;;;;;17.10;82.11;100553.38;5008941;28;20116;-77
2022/09/09 11:03:02;;;;;;;3.25;1.30;;;;;;;17.12;82.72;100558.50;5010938;28;20079;-79
2022/09/09 11:05:43;;;;;;;1.25;1.15;;;;;;;17.14;83.01;100557.47;5009710;28;20348;-78
2022/09/09 11:08:20;;;;;;;2.00;1.20;;;;;;;17.16;82.77;100557.34;5029238;28;20033;-78
2022/09/09 11:11:03;;;;;;;3.67;1.23;;;;;;;17.17;83.03;100557.25;5035306;28;20048;-78
2022/09/09 11:13:48;;;;;;;2.70;1.48;;;;;;;17.17;83.13;100551.09;5021500;28;20037;-78
2022/09/09 11:16:34;;;;;;;2.38;1.27;;;;;;;17.20;83.17;100550.88;5028133;28;20029;-78
2022/09/09 11:19:18;;;;;;;3.55;1.63;;;;;;;17.21;83.52;100548.13;5032450;28;20022;-78
2022/09/09 11:21:54;;;;;;;2.13;1.65;;;;;;;17.22;83.73;100557.75;5030216;28;20037;-78
2022/09/09 11:24:22;;;;;;;5.20;2.35;;;;;;;17.25;83.69;100557.53;5026613;28;20040;-78
2022/09/09 11:26:56;;;;;;;4.22;1.77;;;;;;;17.28;84.23;100556.44;5034097;28;20347;-78
2022/09/09 11:29:34;;;;;;;5.28;2.33;;;;;;;17.29;85.35;100554.66;5035078;28;20024;-78
2022/09/09 11:32:14;;;;;;;5.15;2.13;;;;;;;17.29;85.27;100552.84;5035407;28;20035;-77
2022/09/09 11:35:00;;;;;;;3.78;2.20;;;;;;;17.29;85.71;100555.50;5016270;28;20123;-79
2022/09/09 11:37:37;;;;;;;4.13;2.22;;;;;;;17.30;85.08;100559.84;5014956;28;20033;-78
2022/09/09 11:40:26;;;;;;;3.07;1.50;;;;;;;17.30;84.82;100554.56;5035008;28;20029;-78
2022/09/09 11:43:07;;;;;;;2.25;1.80;;;;;;;17.31;84.60;100556.22;5028436;28;20092;-78
2022/09/09 11:45:35;;;;;;;2.50;1.67;;;;;;;17.31;84.18;100556.22;5035179;28;20059;-78
2022/09/09 11:48:02;;;;;;;9.02;1.63;;;;;;;17.33;84.42;100570.19;5031038;28;20033;-77
2022/09/09 11:50:34;;;;;;;2.17;1.60;;;;;;;17.33;84.55;100572.00;5026218;28;20084;-78
2022/09/09 11:53:22;;;;;;;6.57;1.70;;;;;;;17.32;84.46;100575.59;5021554;28;20288;-78